Elgin, Washington
Current Conditions -  °F | °C
As of 12:53 PM on Monday 24 Nov 2014 (Local Time) from KTIW Reporting Station
Overcast Overcast  
Wind Chill: 44°   Ceiling: 8000
Heat Index: 47°   Visibility: 10mi
Dew Point: 41°   Wind: 6mph
Humidity: 80%   Direction: 160°SSE
Pressure: 30.25"   Gusts: NA
Location:  47.2986°N, 122.616°W
Report Text: KTIW 242053Z 16005KT 10SM SCT050 BKN080 OVC090 08/05 A3025 RMK AO2 SLP247 T00830050 58025
Loading
Personal Weather Stations






























Interactive Weather Map New forecast layout! Learn more

10-Day Weather Forecast

Advertisements
Track Severe Weather on mobile